Aérodrome :
LOGIN :

S'inscrire | Disclaimer

   EN    FR    IT 

 










Légende :    VFR   VFR Marginal   IFR   IFR Intensif   IFR Très Intensif
Visi : 
Plafond : 
>= 8 km
>= 3000ft
5 à 8 km
1000 à 3000 ft
1500m à 5 km
500 à 1000 ft
800 à 1500m
200 à 500 ft
< 800m
< 200 ft
Symboles :   Orages  Brouillard  Fortes neiges  Fortes précipitations  Vent > 20 kt
SIGMETs :   Divers  Orages  Givrage  Turbulence  Onde Orograph.  Cendres Volcan.






- Altitude de l'aérodrome : 686 ft
- Code IATA : URS


UUOK - Vostochny

DERNIER METAR :
  • 241730Z 01005MPS 3600 -SN BR OVC005 00/M00 Q0995 R30/690632 NOSIG RMK QBB150 QFE728/0971

METARs EXPIRÉS :
  • 241700Z 01006MPS 2000 R30/P2000N SHSN BR BKN005 OVC015CB 00/M00 Q0995 R30/690632 NOSIG RMK QBB150 QFE728/0970
  • 241630Z 02005MPS 350V050 1300 R30/2000N SHSN BR BKN005 OVC015CB 00/M00 Q0994 R30/690632 NOSIG RMK QBB150 QFE727/0970
  • 241600Z 02005MPS 2100 -SHSN BR BKN005 OVC015CB 00/M00 Q0994 R30/690632 NOSIG RMK QBB150 QFE727/0970
  • 241530Z 02005MPS 2500 SHSN BR BKN004 OVC015CB 00/M00 Q0994 R30/690632 NOSIG RMK QBB140 QFE727/0969
  • 241500Z 02005MPS 6000 -SN OVC005 00/M00 Q0993 R30/592034 NOSIG RMK QFE727/0969

TAF TAF UUOK
Valide du 24 à 18h jusqu'au 25 à 03h UTC


241700Z 2418/2503 01005G10MPS 1800 SN BR OVC004
TEMPO 2418/2424 35008G13MPS 1000 SHSN OVC002 BKN020CB



MET'MAP, la Météo Aéronautique d'un coup d'oeil ! - Copyright ORBIFLY Décembre 2007 - Disclaimer

ORBIFLY MET'MAP TEAM :

Programmation & Développement : Alexandra Zaïnal
Sur une idée originale de : Baudouin d'Aumeries
Assistance à la programmation : Marc-Olivier Méhu
Soutien technique & logistique : Manuel Goepfert

Contact : metmap@orbifly.com




SOURCES & CREDITS :

   NOAA